Avoca, Wisconsin
Current Conditions -  °F | °C
As of 5:56 PM on Thursday 18 Dec 2014 (Local Time) from KLNR Reporting Station
Overcast Overcast  
Wind Chill: -2°   Ceiling: 1800
Heat Index: -2°   Visibility: 10mi
Dew Point: -8°   Wind: 0mph
Humidity: 64%   Direction: NA
Pressure: 30.27"   Gusts: NA
Location:  43.18°N, 90.32°W
Report Text: KLNR 182356Z AUTO 00000KT 10SM OVC018 M02/M08 A3027 RMK AO2 SLP257 T10171078 11011 21017 50006
Loading
Personal Weather Stations






























Interactive Weather Map New forecast layout! Learn more

10-Day Weather Forecast

Advertisements
Track Severe Weather on mobile